sensor_id;sensor_type;location;lat;lon;timestamp;P1;durP1;ratioP1;P2;durP2;ratioP2
23519;SDS011;11936;50.820;4.336;2023-06-05T00:00:46;5.50;;;2.88;;
23519;SDS011;11936;50.820;4.336;2023-06-05T00:03:11;4.35;;;2.72;;
23519;SDS011;11936;50.820;4.336;2023-06-05T00:05:37;5.70;;;2.60;;
23519;SDS011;11936;50.820;4.336;2023-06-05T00:08:02;8.82;;;3.08;;
23519;SDS011;11936;50.820;4.336;2023-06-05T00:10:28;11.43;;;3.90;;
23519;SDS011;11936;50.820;4.336;2023-06-05T00:12:54;7.10;;;3.15;;
23519;SDS011;11936;50.820;4.336;2023-06-05T00:15:19;6.10;;;3.13;;
23519;SDS011;11936;50.820;4.336;2023-06-05T00:17:45;5.93;;;2.80;;
23519;SDS011;11936;50.820;4.336;2023-06-05T00:20:12;5.40;;;3.03;;
23519;SDS011;11936;50.820;4.336;2023-06-05T00:22:37;6.28;;;2.85;;
23519;SDS011;11936;50.820;4.336;2023-06-05T00:25:04;5.50;;;3.17;;
23519;SDS011;11936;50.820;4.336;2023-06-05T00:27:30;6.10;;;3.15;;
23519;SDS011;11936;50.820;4.336;2023-06-05T00:29:56;6.53;;;2.90;;
23519;SDS011;11936;50.820;4.336;2023-06-05T00:32:21;6.63;;;3.38;;
23519;SDS011;11936;50.820;4.336;2023-06-05T00:34:47;13.07;;;3.97;;
23519;SDS011;11936;50.820;4.336;2023-06-05T00:37:15;8.13;;;3.13;;
23519;SDS011;11936;50.820;4.336;2023-06-05T00:39:41;7.30;;;3.00;;
23519;SDS011;11936;50.820;4.336;2023-06-05T00:42:07;8.00;;;2.88;;
23519;SDS011;11936;50.820;4.336;2023-06-05T00:44:35;8.63;;;3.28;;
23519;SDS011;11936;50.820;4.336;2023-06-05T00:47:01;7.45;;;2.88;;
23519;SDS011;11936;50.820;4.336;2023-06-05T00:49:28;6.78;;;3.45;;
23519;SDS011;11936;50.820;4.336;2023-06-05T00:51:54;6.53;;;3.00;;
23519;SDS011;11936;50.820;4.336;2023-06-05T00:54:21;6.10;;;3.60;;
23519;SDS011;11936;50.820;4.336;2023-06-05T00:56:47;6.18;;;3.40;;
23519;SDS011;11936;50.820;4.336;2023-06-05T00:59:13;5.93;;;2.85;;
23519;SDS011;11936;50.820;4.336;2023-06-05T01:01:39;10.65;;;3.45;;
23519;SDS011;11936;50.820;4.336;2023-06-05T01:04:07;10.65;;;2.92;;
23519;SDS011;11936;50.820;4.336;2023-06-05T01:06:33;10.27;;;3.40;;
23519;SDS011;11936;50.820;4.336;2023-06-05T01:09:01;6.82;;;3.35;;
23519;SDS011;11936;50.820;4.336;2023-06-05T01:14:29;8.50;;;3.10;;
23519;SDS011;11936;50.820;4.336;2023-06-05T01:16:57;5.93;;;3.25;;
23519;SDS011;11936;50.820;4.336;2023-06-05T01:19:27;7.43;;;3.20;;
23519;SDS011;11936;50.820;4.336;2023-06-05T01:21:56;10.45;;;3.33;;
23519;SDS011;11936;50.820;4.336;2023-06-05T01:24:22;4.45;;;2.53;;
23519;SDS011;11936;50.820;4.336;2023-06-05T01:27:08;5.55;;;3.63;;
23519;SDS011;11936;50.820;4.336;2023-06-05T01:32:22;7.80;;;2.92;;
23519;SDS011;11936;50.820;4.336;2023-06-05T01:35:03;8.90;;;3.35;;
23519;SDS011;11936;50.820;4.336;2023-06-05T01:37:31;10.32;;;3.72;;
23519;SDS011;11936;50.820;4.336;2023-06-05T01:40:05;8.90;;;3.58;;
23519;SDS011;11936;50.820;4.336;2023-06-05T01:42:36;6.90;;;3.75;;
23519;SDS011;11936;50.820;4.336;2023-06-05T01:45:03;7.03;;;3.10;;
23519;SDS011;11936;50.820;4.336;2023-06-05T01:47:31;8.57;;;3.07;;
23519;SDS011;11936;50.820;4.336;2023-06-05T01:49:57;6.43;;;3.60;;
23519;SDS011;11936;50.820;4.336;2023-06-05T01:52:23;5.40;;;3.05;;
23519;SDS011;11936;50.820;4.336;2023-06-05T01:54:48;7.72;;;3.28;;
23519;SDS011;11936;50.820;4.336;2023-06-05T01:57:14;4.13;;;2.95;;
23519;SDS011;11936;50.820;4.336;2023-06-05T01:59:40;5.85;;;3.30;;
23519;SDS011;11936;50.820;4.336;2023-06-05T02:02:08;7.20;;;3.60;;
23519;SDS011;11936;50.820;4.336;2023-06-05T02:04:33;9.65;;;3.85;;
23519;SDS011;11936;50.820;4.336;2023-06-05T02:06:59;9.23;;;3.25;;
23519;SDS011;11936;50.820;4.336;2023-06-05T02:09:29;7.07;;;3.90;;
23519;SDS011;11936;50.820;4.336;2023-06-05T02:11:57;4.35;;;3.30;;
23519;SDS011;11936;50.820;4.336;2023-06-05T02:14:23;9.63;;;3.67;;
23519;SDS011;11936;50.820;4.336;2023-06-05T02:16:50;6.22;;;3.75;;
23519;SDS011;11936;50.820;4.336;2023-06-05T02:19:19;8.07;;;3.60;;
23519;SDS011;11936;50.820;4.336;2023-06-05T02:21:45;5.63;;;3.33;;
23519;SDS011;11936;50.820;4.336;2023-06-05T02:24:10;5.40;;;3.60;;
23519;SDS011;11936;50.820;4.336;2023-06-05T02:26:36;7.55;;;3.85;;
23519;SDS011;11936;50.820;4.336;2023-06-05T02:29:01;10.35;;;3.88;;
23519;SDS011;11936;50.820;4.336;2023-06-05T02:31:27;7.15;;;3.55;;
23519;SDS011;11936;50.820;4.336;2023-06-05T02:33:54;7.40;;;4.03;;
23519;SDS011;11936;50.820;4.336;2023-06-05T02:36:20;6.47;;;3.45;;
23519;SDS011;11936;50.820;4.336;2023-06-05T02:38:50;5.80;;;3.13;;
23519;SDS011;11936;50.820;4.336;2023-06-05T02:41:16;6.90;;;4.13;;
23519;SDS011;11936;50.820;4.336;2023-06-05T02:43:42;6.85;;;4.00;;
23519;SDS011;11936;50.820;4.336;2023-06-05T02:46:08;8.02;;;3.95;;
23519;SDS011;11936;50.820;4.336;2023-06-05T02:48:34;10.75;;;3.80;;
23519;SDS011;11936;50.820;4.336;2023-06-05T02:51:00;9.70;;;3.83;;
23519;SDS011;11936;50.820;4.336;2023-06-05T02:53:25;7.38;;;4.18;;
23519;SDS011;11936;50.820;4.336;2023-06-05T02:55:51;6.60;;;3.33;;
23519;SDS011;11936;50.820;4.336;2023-06-05T02:58:18;9.05;;;3.83;;
23519;SDS011;11936;50.820;4.336;2023-06-05T03:00:44;9.00;;;3.83;;
23519;SDS011;11936;50.820;4.336;2023-06-05T03:03:11;7.32;;;4.30;;
23519;SDS011;11936;50.820;4.336;2023-06-05T03:05:37;8.98;;;3.85;;
23519;SDS011;11936;50.820;4.336;2023-06-05T03:08:05;15.23;;;4.57;;
23519;SDS011;11936;50.820;4.336;2023-06-05T03:10:33;7.43;;;3.67;;
23519;SDS011;11936;50.820;4.336;2023-06-05T03:12:59;5.60;;;3.58;;
23519;SDS011;11936;50.820;4.336;2023-06-05T03:15:24;9.52;;;3.75;;
23519;SDS011;11936;50.820;4.336;2023-06-05T03:17:50;7.95;;;4.60;;
23519;SDS011;11936;50.820;4.336;2023-06-05T03:20:17;7.80;;;4.05;;
23519;SDS011;11936;50.820;4.336;2023-06-05T03:22:44;5.50;;;3.55;;
23519;SDS011;11936;50.820;4.336;2023-06-05T03:25:10;6.95;;;3.58;;
23519;SDS011;11936;50.820;4.336;2023-06-05T03:27:36;7.88;;;3.65;;
23519;SDS011;11936;50.820;4.336;2023-06-05T03:30:02;6.80;;;4.18;;
23519;SDS011;11936;50.820;4.336;2023-06-05T03:32:28;7.50;;;3.75;;
23519;SDS011;11936;50.820;4.336;2023-06-05T03:34:54;7.85;;;4.10;;
23519;SDS011;11936;50.820;4.336;2023-06-05T03:37:20;5.72;;;3.33;;
23519;SDS011;11936;50.820;4.336;2023-06-05T03:39:46;7.03;;;4.63;;
23519;SDS011;11936;50.820;4.336;2023-06-05T03:42:12;8.73;;;4.10;;
23519;SDS011;11936;50.820;4.336;2023-06-05T03:44:37;6.75;;;4.18;;
23519;SDS011;11936;50.820;4.336;2023-06-05T03:47:03;14.30;;;4.53;;
23519;SDS011;11936;50.820;4.336;2023-06-05T03:49:29;7.63;;;4.28;;
23519;SDS011;11936;50.820;4.336;2023-06-05T03:51:55;8.80;;;4.35;;
23519;SDS011;11936;50.820;4.336;2023-06-05T03:54:27;12.95;;;5.22;;
23519;SDS011;11936;50.820;4.336;2023-06-05T03:56:54;10.57;;;5.00;;
23519;SDS011;11936;50.820;4.336;2023-06-05T03:59:20;9.82;;;4.55;;
23519;SDS011;11936;50.820;4.336;2023-06-05T04:01:47;9.30;;;4.38;;
23519;SDS011;11936;50.820;4.336;2023-06-05T04:04:13;11.05;;;4.72;;
23519;SDS011;11936;50.820;4.336;2023-06-05T04:06:39;8.48;;;4.88;;
23519;SDS011;11936;50.820;4.336;2023-06-05T04:09:08;8.10;;;5.25;;
23519;SDS011;11936;50.820;4.336;2023-06-05T04:11:40;10.43;;;4.88;;
23519;SDS011;11936;50.820;4.336;2023-06-05T04:14:07;6.95;;;4.03;;
23519;SDS011;11936;50.820;4.336;2023-06-05T04:16:33;9.82;;;4.20;;
23519;SDS011;11936;50.820;4.336;2023-06-05T04:19:03;9.95;;;4.68;;
23519;SDS011;11936;50.820;4.336;2023-06-05T04:21:31;6.17;;;4.43;;
23519;SDS011;11936;50.820;4.336;2023-06-05T04:23:58;12.00;;;5.35;;
23519;SDS011;11936;50.820;4.336;2023-06-05T04:26:23;8.15;;;4.38;;
23519;SDS011;11936;50.820;4.336;2023-06-05T04:28:51;11.10;;;4.90;;
23519;SDS011;11936;50.820;4.336;2023-06-05T04:31:17;11.77;;;5.00;;
23519;SDS011;11936;50.820;4.336;2023-06-05T04:33:42;9.23;;;4.55;;
23519;SDS011;11936;50.820;4.336;2023-06-05T04:36:08;14.45;;;4.78;;
23519;SDS011;11936;50.820;4.336;2023-06-05T04:38:34;6.68;;;4.72;;
23519;SDS011;11936;50.820;4.336;2023-06-05T04:40:59;10.80;;;4.88;;
23519;SDS011;11936;50.820;4.336;2023-06-05T04:43:25;12.85;;;5.22;;
23519;SDS011;11936;50.820;4.336;2023-06-05T04:45:51;15.32;;;5.72;;
23519;SDS011;11936;50.820;4.336;2023-06-05T04:48:16;9.98;;;5.53;;
23519;SDS011;11936;50.820;4.336;2023-06-05T04:50:42;10.55;;;5.13;;
23519;SDS011;11936;50.820;4.336;2023-06-05T04:53:08;15.60;;;5.13;;
23519;SDS011;11936;50.820;4.336;2023-06-05T04:55:33;5.95;;;4.55;;
23519;SDS011;11936;50.820;4.336;2023-06-05T04:57:59;11.63;;;6.15;;
23519;SDS011;11936;50.820;4.336;2023-06-05T05:00:25;14.23;;;5.65;;
23519;SDS011;11936;50.820;4.336;2023-06-05T05:02:52;12.18;;;5.03;;
23519;SDS011;11936;50.820;4.336;2023-06-05T05:05:18;10.93;;;5.40;;
23519;SDS011;11936;50.820;4.336;2023-06-05T05:07:44;13.18;;;5.63;;
23519;SDS011;11936;50.820;4.336;2023-06-05T05:10:10;11.35;;;5.38;;
23519;SDS011;11936;50.820;4.336;2023-06-05T05:12:36;12.93;;;4.95;;
23519;SDS011;11936;50.820;4.336;2023-06-05T05:15:03;10.43;;;5.43;;
23519;SDS011;11936;50.820;4.336;2023-06-05T05:17:30;13.63;;;5.78;;
23519;SDS011;11936;50.820;4.336;2023-06-05T05:19:56;11.20;;;5.53;;
23519;SDS011;11936;50.820;4.336;2023-06-05T05:22:22;18.13;;;5.85;;
23519;SDS011;11936;50.820;4.336;2023-06-05T05:24:48;10.10;;;5.93;;
23519;SDS011;11936;50.820;4.336;2023-06-05T05:27:13;14.50;;;5.68;;
23519;SDS011;11936;50.820;4.336;2023-06-05T05:29:39;16.02;;;6.05;;
23519;SDS011;11936;50.820;4.336;2023-06-05T05:32:05;9.30;;;5.75;;
23519;SDS011;11936;50.820;4.336;2023-06-05T05:34:31;15.65;;;6.72;;
23519;SDS011;11936;50.820;4.336;2023-06-05T05:36:58;12.10;;;6.47;;
23519;SDS011;11936;50.820;4.336;2023-06-05T05:39:24;12.95;;;5.57;;
23519;SDS011;11936;50.820;4.336;2023-06-05T05:41:50;13.15;;;6.13;;
23519;SDS011;11936;50.820;4.336;2023-06-05T05:44:15;9.65;;;5.50;;
23519;SDS011;11936;50.820;4.336;2023-06-05T05:46:41;12.75;;;5.78;;
23519;SDS011;11936;50.820;4.336;2023-06-05T05:49:07;13.85;;;6.55;;
23519;SDS011;11936;50.820;4.336;2023-06-05T05:51:33;14.57;;;6.28;;
23519;SDS011;11936;50.820;4.336;2023-06-05T05:53:58;11.93;;;6.57;;
23519;SDS011;11936;50.820;4.336;2023-06-05T05:56:25;12.43;;;5.82;;
23519;SDS011;11936;50.820;4.336;2023-06-05T05:58:50;10.65;;;6.47;;
23519;SDS011;11936;50.820;4.336;2023-06-05T06:01:16;15.40;;;7.30;;
23519;SDS011;11936;50.820;4.336;2023-06-05T06:03:41;11.93;;;6.35;;
23519;SDS011;11936;50.820;4.336;2023-06-05T06:06:08;17.67;;;6.88;;
23519;SDS011;11936;50.820;4.336;2023-06-05T06:08:33;7.90;;;6.22;;
23519;SDS011;11936;50.820;4.336;2023-06-05T06:11:00;15.38;;;6.63;;
23519;SDS011;11936;50.820;4.336;2023-06-05T06:13:26;22.50;;;7.65;;
23519;SDS011;11936;50.820;4.336;2023-06-05T06:15:52;11.13;;;6.78;;
23519;SDS011;11936;50.820;4.336;2023-06-05T06:18:18;17.77;;;7.05;;
23519;SDS011;11936;50.820;4.336;2023-06-05T06:20:44;12.77;;;6.60;;
23519;SDS011;11936;50.820;4.336;2023-06-05T06:23:09;14.80;;;7.65;;
23519;SDS011;11936;50.820;4.336;2023-06-05T06:25:35;15.77;;;7.70;;
23519;SDS011;11936;50.820;4.336;2023-06-05T06:28:02;14.90;;;6.75;;
23519;SDS011;11936;50.820;4.336;2023-06-05T06:30:27;22.50;;;7.53;;
23519;SDS011;11936;50.820;4.336;2023-06-05T06:32:53;18.55;;;7.63;;
23519;SDS011;11936;50.820;4.336;2023-06-05T06:35:23;16.02;;;7.38;;
23519;SDS011;11936;50.820;4.336;2023-06-05T06:37:52;10.80;;;7.40;;
23519;SDS011;11936;50.820;4.336;2023-06-05T06:42:43;18.15;;;7.90;;
23519;SDS011;11936;50.820;4.336;2023-06-05T06:45:09;11.18;;;7.30;;
23519;SDS011;11936;50.820;4.336;2023-06-05T06:47:35;13.07;;;7.30;;
23519;SDS011;11936;50.820;4.336;2023-06-05T06:50:01;10.68;;;7.15;;
23519;SDS011;11936;50.820;4.336;2023-06-05T06:52:26;16.70;;;7.32;;
23519;SDS011;11936;50.820;4.336;2023-06-05T06:54:52;15.55;;;7.53;;
23519;SDS011;11936;50.820;4.336;2023-06-05T06:57:18;14.20;;;7.13;;
23519;SDS011;11936;50.820;4.336;2023-06-05T06:59:43;9.70;;;6.75;;
23519;SDS011;11936;50.820;4.336;2023-06-05T07:02:11;14.30;;;7.85;;
23519;SDS011;11936;50.820;4.336;2023-06-05T07:04:39;12.00;;;7.30;;
23519;SDS011;11936;50.820;4.336;2023-06-05T07:07:08;14.93;;;7.15;;
23519;SDS011;11936;50.820;4.336;2023-06-05T07:09:35;13.65;;;7.18;;
23519;SDS011;11936;50.820;4.336;2023-06-05T07:12:01;13.63;;;7.80;;
23519;SDS011;11936;50.820;4.336;2023-06-05T07:14:30;14.18;;;7.90;;
23519;SDS011;11936;50.820;4.336;2023-06-05T07:16:57;12.85;;;8.68;;
23519;SDS011;11936;50.820;4.336;2023-06-05T07:19:25;17.80;;;8.10;;
23519;SDS011;11936;50.820;4.336;2023-06-05T07:21:51;18.38;;;8.07;;
23519;SDS011;11936;50.820;4.336;2023-06-05T07:24:17;14.60;;;7.70;;
23519;SDS011;11936;50.820;4.336;2023-06-05T07:26:43;17.50;;;7.68;;
23519;SDS011;11936;50.820;4.336;2023-06-05T07:29:10;17.38;;;8.63;;
23519;SDS011;11936;50.820;4.336;2023-06-05T07:31:35;18.27;;;8.05;;
23519;SDS011;11936;50.820;4.336;2023-06-05T07:34:01;16.75;;;7.72;;
23519;SDS011;11936;50.820;4.336;2023-06-05T07:36:27;18.60;;;8.70;;
23519;SDS011;11936;50.820;4.336;2023-06-05T07:38:53;15.35;;;7.45;;
23519;SDS011;11936;50.820;4.336;2023-06-05T07:41:19;22.52;;;8.57;;
23519;SDS011;11936;50.820;4.336;2023-06-05T07:43:46;14.52;;;8.38;;
23519;SDS011;11936;50.820;4.336;2023-06-05T07:46:11;27.20;;;9.45;;
23519;SDS011;11936;50.820;4.336;2023-06-05T07:48:37;18.25;;;9.00;;
23519;SDS011;11936;50.820;4.336;2023-06-05T07:51:03;14.70;;;8.82;;
23519;SDS011;11936;50.820;4.336;2023-06-05T07:53:28;19.15;;;9.68;;
23519;SDS011;11936;50.820;4.336;2023-06-05T07:55:54;14.88;;;8.95;;
23519;SDS011;11936;50.820;4.336;2023-06-05T07:58:21;18.05;;;9.02;;
23519;SDS011;11936;50.820;4.336;2023-06-05T08:00:46;13.13;;;8.73;;
23519;SDS011;11936;50.820;4.336;2023-06-05T08:03:16;19.25;;;9.27;;
23519;SDS011;11936;50.820;4.336;2023-06-05T08:05:48;17.35;;;8.57;;
23519;SDS011;11936;50.820;4.336;2023-06-05T08:08:15;21.55;;;9.88;;
23519;SDS011;11936;50.820;4.336;2023-06-05T08:10:41;13.73;;;8.63;;
23519;SDS011;11936;50.820;4.336;2023-06-05T08:13:10;17.10;;;8.75;;
23519;SDS011;11936;50.820;4.336;2023-06-05T08:15:35;17.88;;;8.48;;
23519;SDS011;11936;50.820;4.336;2023-06-05T08:18:01;24.35;;;10.20;;
23519;SDS011;11936;50.820;4.336;2023-06-05T08:20:28;22.85;;;9.85;;
23519;SDS011;11936;50.820;4.336;2023-06-05T08:22:57;21.05;;;8.95;;
23519;SDS011;11936;50.820;4.336;2023-06-05T08:25:25;61.75;;;13.55;;
23519;SDS011;11936;50.820;4.336;2023-06-05T08:27:51;17.58;;;8.73;;
23519;SDS011;11936;50.820;4.336;2023-06-05T08:30:17;12.07;;;8.93;;
23519;SDS011;11936;50.820;4.336;2023-06-05T08:32:43;19.67;;;8.60;;
23519;SDS011;11936;50.820;4.336;2023-06-05T08:35:09;17.40;;;8.30;;
23519;SDS011;11936;50.820;4.336;2023-06-05T08:37:35;17.13;;;7.75;;
23519;SDS011;11936;50.820;4.336;2023-06-05T08:40:04;23.83;;;9.13;;
23519;SDS011;11936;50.820;4.336;2023-06-05T08:42:33;10.90;;;8.18;;
23519;SDS011;11936;50.820;4.336;2023-06-05T08:44:59;21.85;;;9.38;;
23519;SDS011;11936;50.820;4.336;2023-06-05T08:47:27;20.70;;;8.77;;
23519;SDS011;11936;50.820;4.336;2023-06-05T08:49:55;17.88;;;8.77;;
23519;SDS011;11936;50.820;4.336;2023-06-05T08:52:22;15.82;;;9.20;;
23519;SDS011;11936;50.820;4.336;2023-06-05T08:54:50;24.25;;;9.38;;
23519;SDS011;11936;50.820;4.336;2023-06-05T08:57:16;17.20;;;9.70;;
23519;SDS011;11936;50.820;4.336;2023-06-05T08:59:42;27.25;;;10.00;;
23519;SDS011;11936;50.820;4.336;2023-06-05T09:02:09;30.70;;;9.63;;
23519;SDS011;11936;50.820;4.336;2023-06-05T09:04:35;13.60;;;9.32;;
23519;SDS011;11936;50.820;4.336;2023-06-05T09:07:03;19.90;;;8.68;;
23519;SDS011;11936;50.820;4.336;2023-06-05T09:09:29;18.33;;;8.85;;
23519;SDS011;11936;50.820;4.336;2023-06-05T09:12:04;17.33;;;9.43;;
23519;SDS011;11936;50.820;4.336;2023-06-05T09:14:33;21.00;;;8.45;;
23519;SDS011;11936;50.820;4.336;2023-06-05T09:16:59;18.42;;;8.05;;
23519;SDS011;11936;50.820;4.336;2023-06-05T09:19:36;16.35;;;8.13;;
23519;SDS011;11936;50.820;4.336;2023-06-05T09:22:02;22.75;;;9.30;;
23519;SDS011;11936;50.820;4.336;2023-06-05T09:24:28;19.33;;;8.63;;
23519;SDS011;11936;50.820;4.336;2023-06-05T09:29:32;17.23;;;8.88;;
23519;SDS011;11936;50.820;4.336;2023-06-05T09:34:33;16.55;;;8.20;;
23519;SDS011;11936;50.820;4.336;2023-06-05T09:37:03;14.38;;;8.88;;
23519;SDS011;11936;50.820;4.336;2023-06-05T09:39:33;15.90;;;8.55;;
23519;SDS011;11936;50.820;4.336;2023-06-05T09:42:00;15.40;;;9.57;;
23519;SDS011;11936;50.820;4.336;2023-06-05T09:44:27;17.45;;;8.48;;
23519;SDS011;11936;50.820;4.336;2023-06-05T09:46:58;15.68;;;9.18;;
23519;SDS011;11936;50.820;4.336;2023-06-05T09:49:31;18.23;;;9.77;;
23519;SDS011;11936;50.820;4.336;2023-06-05T09:51:58;15.85;;;7.97;;
23519;SDS011;11936;50.820;4.336;2023-06-05T09:54:26;11.55;;;7.28;;
23519;SDS011;11936;50.820;4.336;2023-06-05T09:56:55;15.20;;;8.45;;
23519;SDS011;11936;50.820;4.336;2023-06-05T09:59:30;13.35;;;8.07;;
23519;SDS011;11936;50.820;4.336;2023-06-05T10:01:59;12.77;;;7.45;;
23519;SDS011;11936;50.820;4.336;2023-06-05T10:04:38;13.13;;;8.55;;
23519;SDS011;11936;50.820;4.336;2023-06-05T10:07:10;17.80;;;9.05;;
23519;SDS011;11936;50.820;4.336;2023-06-05T10:09:37;21.10;;;9.38;;
23519;SDS011;11936;50.820;4.336;2023-06-05T10:12:04;18.42;;;8.43;;
23519;SDS011;11936;50.820;4.336;2023-06-05T10:14:32;18.87;;;8.50;;
23519;SDS011;11936;50.820;4.336;2023-06-05T10:16:59;14.32;;;9.52;;
23519;SDS011;11936;50.820;4.336;2023-06-05T10:19:27;13.25;;;8.13;;
23519;SDS011;11936;50.820;4.336;2023-06-05T10:21:53;15.10;;;8.35;;
23519;SDS011;11936;50.820;4.336;2023-06-05T10:24:23;12.93;;;8.52;;
23519;SDS011;11936;50.820;4.336;2023-06-05T10:37:47;17.65;;;7.68;;
23519;SDS011;11936;50.820;4.336;2023-06-05T10:40:38;12.55;;;8.55;;
23519;SDS011;11936;50.820;4.336;2023-06-05T10:43:26;11.85;;;6.97;;
23519;SDS011;11936;50.820;4.336;2023-06-05T10:45:58;15.45;;;6.13;;
23519;SDS011;11936;50.820;4.336;2023-06-05T10:51:31;17.67;;;7.88;;
23519;SDS011;11936;50.820;4.336;2023-06-05T10:53:58;14.23;;;7.45;;
23519;SDS011;11936;50.820;4.336;2023-06-05T10:59:17;17.25;;;6.57;;
23519;SDS011;11936;50.820;4.336;2023-06-05T11:10:03;17.30;;;6.88;;
23519;SDS011;11936;50.820;4.336;2023-06-05T11:15:11;15.63;;;5.65;;
23519;SDS011;11936;50.820;4.336;2023-06-05T11:17:39;11.93;;;5.38;;
23519;SDS011;11936;50.820;4.336;2023-06-05T11:20:07;8.07;;;6.25;;
23519;SDS011;11936;50.820;4.336;2023-06-05T11:30:13;9.75;;;6.05;;
23519;SDS011;11936;50.820;4.336;2023-06-05T11:32:40;11.30;;;6.40;;
23519;SDS011;11936;50.820;4.336;2023-06-05T11:35:06;18.88;;;6.63;;
23519;SDS011;11936;50.820;4.336;2023-06-05T11:37:37;10.52;;;5.60;;
23519;SDS011;11936;50.820;4.336;2023-06-05T11:40:04;10.70;;;5.73;;
23519;SDS011;11936;50.820;4.336;2023-06-05T11:42:35;19.13;;;6.55;;
23519;SDS011;11936;50.820;4.336;2023-06-05T11:45:01;12.65;;;6.15;;
23519;SDS011;11936;50.820;4.336;2023-06-05T11:47:28;11.15;;;5.40;;
23519;SDS011;11936;50.820;4.336;2023-06-05T11:50:06;11.98;;;5.13;;
23519;SDS011;11936;50.820;4.336;2023-06-05T11:52:36;15.15;;;5.82;;
23519;SDS011;11936;50.820;4.336;2023-06-05T11:55:18;18.52;;;6.72;;
23519;SDS011;11936;50.820;4.336;2023-06-05T11:57:46;6.28;;;4.72;;
23519;SDS011;11936;50.820;4.336;2023-06-05T12:00:13;5.60;;;4.70;;
23519;SDS011;11936;50.820;4.336;2023-06-05T12:02:41;11.30;;;5.28;;
23519;SDS011;11936;50.820;4.336;2023-06-05T12:05:08;8.05;;;5.38;;
23519;SDS011;11936;50.820;4.336;2023-06-05T12:07:34;10.65;;;6.10;;
23519;SDS011;11936;50.820;4.336;2023-06-05T12:10:08;14.13;;;6.93;;
23519;SDS011;11936;50.820;4.336;2023-06-05T12:12:35;11.43;;;5.78;;
23519;SDS011;11936;50.820;4.336;2023-06-05T12:15:17;7.50;;;5.32;;
23519;SDS011;11936;50.820;4.336;2023-06-05T12:17:55;16.85;;;5.72;;
23519;SDS011;11936;50.820;4.336;2023-06-05T12:20:21;9.63;;;5.28;;
23519;SDS011;11936;50.820;4.336;2023-06-05T12:22:48;13.15;;;5.72;;
23519;SDS011;11936;50.820;4.336;2023-06-05T12:25:17;13.90;;;6.00;;
23519;SDS011;11936;50.820;4.336;2023-06-05T12:27:47;58.20;;;9.25;;
23519;SDS011;11936;50.820;4.336;2023-06-05T12:30:17;22.25;;;6.32;;
23519;SDS011;11936;50.820;4.336;2023-06-05T12:32:43;12.93;;;4.68;;
23519;SDS011;11936;50.820;4.336;2023-06-05T12:35:19;7.07;;;4.55;;
23519;SDS011;11936;50.820;4.336;2023-06-05T12:37:45;14.18;;;5.07;;
23519;SDS011;11936;50.820;4.336;2023-06-05T12:42:44;10.52;;;3.92;;
23519;SDS011;11936;50.820;4.336;2023-06-05T12:45:10;17.52;;;4.38;;
23519;SDS011;11936;50.820;4.336;2023-06-05T12:47:37;24.50;;;6.15;;
23519;SDS011;11936;50.820;4.336;2023-06-05T12:50:03;12.90;;;4.90;;
23519;SDS011;11936;50.820;4.336;2023-06-05T12:52:30;14.88;;;5.25;;
23519;SDS011;11936;50.820;4.336;2023-06-05T12:54:56;12.32;;;4.07;;
23519;SDS011;11936;50.820;4.336;2023-06-05T12:57:23;14.10;;;5.15;;
23519;SDS011;11936;50.820;4.336;2023-06-05T12:59:49;15.30;;;4.57;;
23519;SDS011;11936;50.820;4.336;2023-06-05T13:02:18;7.88;;;3.42;;
23519;SDS011;11936;50.820;4.336;2023-06-05T13:04:43;8.30;;;2.92;;
23519;SDS011;11936;50.820;4.336;2023-06-05T13:07:09;12.07;;;3.55;;
23519;SDS011;11936;50.820;4.336;2023-06-05T13:09:37;10.95;;;4.05;;
23519;SDS011;11936;50.820;4.336;2023-06-05T13:12:04;14.95;;;3.20;;
23519;SDS011;11936;50.820;4.336;2023-06-05T13:14:33;9.65;;;4.32;;
23519;SDS011;11936;50.820;4.336;2023-06-05T13:16:59;14.90;;;4.10;;
23519;SDS011;11936;50.820;4.336;2023-06-05T13:19:25;8.32;;;3.90;;
23519;SDS011;11936;50.820;4.336;2023-06-05T13:21:51;13.90;;;3.72;;
23519;SDS011;11936;50.820;4.336;2023-06-05T13:24:17;7.03;;;3.45;;
23519;SDS011;11936;50.820;4.336;2023-06-05T13:26:43;6.35;;;3.20;;
23519;SDS011;11936;50.820;4.336;2023-06-05T13:29:09;7.82;;;3.38;;
23519;SDS011;11936;50.820;4.336;2023-06-05T13:31:35;14.48;;;3.13;;
23519;SDS011;11936;50.820;4.336;2023-06-05T13:34:01;7.20;;;3.35;;
23519;SDS011;11936;50.820;4.336;2023-06-05T13:36:27;10.43;;;4.75;;
23519;SDS011;11936;50.820;4.336;2023-06-05T13:38:53;7.32;;;3.30;;
23519;SDS011;11936;50.820;4.336;2023-06-05T13:41:19;12.98;;;3.78;;
23519;SDS011;11936;50.820;4.336;2023-06-05T13:43:46;5.97;;;2.92;;
23519;SDS011;11936;50.820;4.336;2023-06-05T13:46:11;9.98;;;3.78;;
23519;SDS011;11936;50.820;4.336;2023-06-05T13:48:37;13.57;;;3.42;;
23519;SDS011;11936;50.820;4.336;2023-06-05T13:51:03;8.35;;;3.80;;
23519;SDS011;11936;50.820;4.336;2023-06-05T13:53:29;13.35;;;3.42;;
23519;SDS011;11936;50.820;4.336;2023-06-05T13:56:02;13.00;;;3.67;;
23519;SDS011;11936;50.820;4.336;2023-06-05T13:58:28;13.65;;;3.50;;
23519;SDS011;11936;50.820;4.336;2023-06-05T14:00:54;11.20;;;3.40;;
23519;SDS011;11936;50.820;4.336;2023-06-05T14:03:20;10.85;;;3.35;;
23519;SDS011;11936;50.820;4.336;2023-06-05T14:05:46;10.38;;;3.20;;
23519;SDS011;11936;50.820;4.336;2023-06-05T14:08:11;15.23;;;3.58;;
23519;SDS011;11936;50.820;4.336;2023-06-05T14:10:37;14.90;;;4.22;;
23519;SDS011;11936;50.820;4.336;2023-06-05T14:13:02;14.20;;;3.88;;
23519;SDS011;11936;50.820;4.336;2023-06-05T14:15:30;13.52;;;4.00;;
23519;SDS011;11936;50.820;4.336;2023-06-05T14:17:56;11.40;;;3.80;;
23519;SDS011;11936;50.820;4.336;2023-06-05T14:20:22;11.52;;;3.60;;
23519;SDS011;11936;50.820;4.336;2023-06-05T14:22:48;8.50;;;4.03;;
23519;SDS011;11936;50.820;4.336;2023-06-05T14:25:14;15.52;;;4.60;;
23519;SDS011;11936;50.820;4.336;2023-06-05T14:27:40;7.15;;;3.80;;
23519;SDS011;11936;50.820;4.336;2023-06-05T14:30:06;10.32;;;3.78;;
23519;SDS011;11936;50.820;4.336;2023-06-05T14:32:33;13.43;;;3.67;;
23519;SDS011;11936;50.820;4.336;2023-06-05T14:34:59;4.78;;;3.67;;
23519;SDS011;11936;50.820;4.336;2023-06-05T14:37:25;4.53;;;3.42;;
23519;SDS011;11936;50.820;4.336;2023-06-05T14:39:50;5.50;;;2.83;;
23519;SDS011;11936;50.820;4.336;2023-06-05T14:42:16;5.03;;;3.08;;
23519;SDS011;11936;50.820;4.336;2023-06-05T14:44:42;7.38;;;3.45;;
23519;SDS011;11936;50.820;4.336;2023-06-05T14:47:07;7.78;;;3.75;;
23519;SDS011;11936;50.820;4.336;2023-06-05T14:49:33;8.50;;;3.65;;
23519;SDS011;11936;50.820;4.336;2023-06-05T14:51:58;10.73;;;3.40;;
23519;SDS011;11936;50.820;4.336;2023-06-05T14:54:24;12.98;;;3.50;;
23519;SDS011;11936;50.820;4.336;2023-06-05T14:56:50;8.80;;;3.55;;
23519;SDS011;11936;50.820;4.336;2023-06-05T14:59:15;17.88;;;4.55;;
23519;SDS011;11936;50.820;4.336;2023-06-05T15:01:41;10.35;;;3.78;;
23519;SDS011;11936;50.820;4.336;2023-06-05T15:04:06;19.77;;;4.18;;
23519;SDS011;11936;50.820;4.336;2023-06-05T15:06:32;12.35;;;3.83;;
23519;SDS011;11936;50.820;4.336;2023-06-05T15:08:57;9.82;;;3.53;;
23519;SDS011;11936;50.820;4.336;2023-06-05T15:11:23;7.05;;;3.30;;
23519;SDS011;11936;50.820;4.336;2023-06-05T15:13:49;7.50;;;3.38;;
23519;SDS011;11936;50.820;4.336;2023-06-05T15:16:14;10.65;;;3.72;;
23519;SDS011;11936;50.820;4.336;2023-06-05T15:18:40;14.13;;;3.65;;
23519;SDS011;11936;50.820;4.336;2023-06-05T15:21:05;7.00;;;3.58;;
23519;SDS011;11936;50.820;4.336;2023-06-05T15:23:31;17.25;;;4.35;;
23519;SDS011;11936;50.820;4.336;2023-06-05T15:25:56;10.35;;;3.92;;
23519;SDS011;11936;50.820;4.336;2023-06-05T15:28:22;9.43;;;3.78;;